sensor_id;sensor_type;location;lat;lon;timestamp;P1;durP1;ratioP1;P2;durP2;ratioP2
61383;SDS011;63511;49.346;8.798;2022-10-30T00:00:23;18.88;;;5.85;;
61383;SDS011;63511;49.346;8.798;2022-10-30T00:02:49;23.25;;;5.82;;
61383;SDS011;63511;49.346;8.798;2022-10-30T00:05:15;23.40;;;6.13;;
61383;SDS011;63511;49.346;8.798;2022-10-30T00:07:40;30.55;;;7.50;;
61383;SDS011;63511;49.346;8.798;2022-10-30T00:10:08;33.70;;;8.20;;
61383;SDS011;63511;49.346;8.798;2022-10-30T00:12:34;17.88;;;7.07;;
61383;SDS011;63511;49.346;8.798;2022-10-30T00:14:59;29.98;;;7.57;;
61383;SDS011;63511;49.346;8.798;2022-10-30T00:17:27;19.10;;;6.82;;
61383;SDS011;63511;49.346;8.798;2022-10-30T00:19:54;13.73;;;6.53;;
61383;SDS011;63511;49.346;8.798;2022-10-30T00:22:20;23.48;;;7.55;;
61383;SDS011;63511;49.346;8.798;2022-10-30T00:24:45;16.15;;;5.35;;
61383;SDS011;63511;49.346;8.798;2022-10-30T00:27:10;19.85;;;5.78;;
61383;SDS011;63511;49.346;8.798;2022-10-30T00:29:36;15.65;;;6.32;;
61383;SDS011;63511;49.346;8.798;2022-10-30T00:32:01;19.00;;;6.72;;
61383;SDS011;63511;49.346;8.798;2022-10-30T00:34:31;13.95;;;6.50;;
61383;SDS011;63511;49.346;8.798;2022-10-30T00:36:56;17.38;;;5.47;;
61383;SDS011;63511;49.346;8.798;2022-10-30T00:39:22;15.25;;;5.88;;
61383;SDS011;63511;49.346;8.798;2022-10-30T00:41:47;15.63;;;5.72;;
61383;SDS011;63511;49.346;8.798;2022-10-30T00:49:38;21.33;;;6.53;;
61383;SDS011;63511;49.346;8.798;2022-10-30T00:52:12;15.02;;;6.00;;
61383;SDS011;63511;49.346;8.798;2022-10-30T00:54:39;19.63;;;6.28;;
61383;SDS011;63511;49.346;8.798;2022-10-30T00:57:05;18.10;;;5.65;;
61383;SDS011;63511;49.346;8.798;2022-10-30T00:59:34;12.50;;;5.82;;
61383;SDS011;63511;49.346;8.798;2022-10-30T01:02:01;14.38;;;6.82;;
61383;SDS011;63511;49.346;8.798;2022-10-30T01:04:30;27.77;;;6.38;;
61383;SDS011;63511;49.346;8.798;2022-10-30T01:07:01;18.02;;;6.40;;
61383;SDS011;63511;49.346;8.798;2022-10-30T01:09:34;14.82;;;6.35;;
61383;SDS011;63511;49.346;8.798;2022-10-30T01:12:00;20.15;;;6.47;;
61383;SDS011;63511;49.346;8.798;2022-10-30T01:14:27;14.55;;;5.63;;
61383;SDS011;63511;49.346;8.798;2022-10-30T01:19:27;25.27;;;7.40;;
61383;SDS011;63511;49.346;8.798;2022-10-30T01:33:03;21.73;;;6.68;;
61383;SDS011;63511;49.346;8.798;2022-10-30T01:35:51;18.67;;;5.68;;
61383;SDS011;63511;49.346;8.798;2022-10-30T01:38:28;21.63;;;7.15;;
61383;SDS011;63511;49.346;8.798;2022-10-30T01:40:59;16.40;;;5.95;;
61383;SDS011;63511;49.346;8.798;2022-10-30T01:43:24;16.85;;;6.30;;
61383;SDS011;63511;49.346;8.798;2022-10-30T02:01:45;10.48;;;5.40;;
61383;SDS011;63511;49.346;8.798;2022-10-30T02:04:11;21.45;;;5.38;;
61383;SDS011;63511;49.346;8.798;2022-10-30T02:06:37;15.10;;;5.93;;
61383;SDS011;63511;49.346;8.798;2022-10-30T02:09:04;21.33;;;6.60;;
61383;SDS011;63511;49.346;8.798;2022-10-30T02:11:30;15.90;;;5.28;;
61383;SDS011;63511;49.346;8.798;2022-10-30T02:13:57;19.05;;;5.90;;
61383;SDS011;63511;49.346;8.798;2022-10-30T02:16:26;16.65;;;6.20;;
61383;SDS011;63511;49.346;8.798;2022-10-30T02:18:54;28.60;;;9.63;;
61383;SDS011;63511;49.346;8.798;2022-10-30T02:21:19;17.52;;;6.82;;
61383;SDS011;63511;49.346;8.798;2022-10-30T02:23:51;33.60;;;8.25;;
61383;SDS011;63511;49.346;8.798;2022-10-30T02:26:19;21.65;;;6.45;;
61383;SDS011;63511;49.346;8.798;2022-10-30T02:28:46;14.10;;;5.93;;
61383;SDS011;63511;49.346;8.798;2022-10-30T02:31:12;17.88;;;7.38;;
61383;SDS011;63511;49.346;8.798;2022-10-30T02:33:37;18.75;;;5.80;;
61383;SDS011;63511;49.346;8.798;2022-10-30T02:36:02;12.93;;;6.22;;
61383;SDS011;63511;49.346;8.798;2022-10-30T02:38:30;28.23;;;8.25;;
61383;SDS011;63511;49.346;8.798;2022-10-30T02:40:56;19.95;;;6.93;;
61383;SDS011;63511;49.346;8.798;2022-10-30T02:43:22;22.98;;;6.60;;
61383;SDS011;63511;49.346;8.798;2022-10-30T02:45:50;18.27;;;6.43;;
61383;SDS011;63511;49.346;8.798;2022-10-30T02:48:16;16.23;;;5.95;;
61383;SDS011;63511;49.346;8.798;2022-10-30T02:50:42;20.23;;;5.68;;
61383;SDS011;63511;49.346;8.798;2022-10-30T02:53:09;18.70;;;6.25;;
61383;SDS011;63511;49.346;8.798;2022-10-30T02:55:34;17.15;;;5.80;;
61383;SDS011;63511;49.346;8.798;2022-10-30T02:58:00;15.73;;;5.38;;
61383;SDS011;63511;49.346;8.798;2022-10-30T03:00:25;12.25;;;5.53;;
61383;SDS011;63511;49.346;8.798;2022-10-30T03:02:54;15.98;;;6.82;;
61383;SDS011;63511;49.346;8.798;2022-10-30T03:05:20;19.90;;;6.25;;
61383;SDS011;63511;49.346;8.798;2022-10-30T03:07:45;28.20;;;6.07;;
61383;SDS011;63511;49.346;8.798;2022-10-30T03:10:15;17.67;;;6.72;;
61383;SDS011;63511;49.346;8.798;2022-10-30T03:12:42;17.20;;;5.55;;
61383;SDS011;63511;49.346;8.798;2022-10-30T03:15:08;25.17;;;5.70;;
61383;SDS011;63511;49.346;8.798;2022-10-30T03:17:34;22.73;;;6.57;;
61383;SDS011;63511;49.346;8.798;2022-10-30T03:19:59;21.77;;;6.45;;
61383;SDS011;63511;49.346;8.798;2022-10-30T03:22:24;18.80;;;6.22;;
61383;SDS011;63511;49.346;8.798;2022-10-30T03:24:52;15.00;;;5.53;;
61383;SDS011;63511;49.346;8.798;2022-10-30T03:27:17;27.70;;;5.97;;
61383;SDS011;63511;49.346;8.798;2022-10-30T03:29:42;22.05;;;6.45;;
61383;SDS011;63511;49.346;8.798;2022-10-30T03:32:15;16.23;;;7.70;;
61383;SDS011;63511;49.346;8.798;2022-10-30T03:34:40;19.55;;;6.07;;
61383;SDS011;63511;49.346;8.798;2022-10-30T03:37:05;29.98;;;5.95;;
61383;SDS011;63511;49.346;8.798;2022-10-30T03:39:30;13.52;;;5.43;;
61383;SDS011;63511;49.346;8.798;2022-10-30T03:41:56;14.05;;;5.65;;
61383;SDS011;63511;49.346;8.798;2022-10-30T03:44:21;14.85;;;5.07;;
61383;SDS011;63511;49.346;8.798;2022-10-30T03:46:49;29.02;;;6.82;;
61383;SDS011;63511;49.346;8.798;2022-10-30T03:49:16;20.83;;;6.80;;
61383;SDS011;63511;49.346;8.798;2022-10-30T03:51:42;19.15;;;6.60;;
61383;SDS011;63511;49.346;8.798;2022-10-30T03:54:09;17.13;;;7.55;;
61383;SDS011;63511;49.346;8.798;2022-10-30T03:56:35;14.57;;;5.97;;
61383;SDS011;63511;49.346;8.798;2022-10-30T03:59:02;19.75;;;6.55;;
61383;SDS011;63511;49.346;8.798;2022-10-30T04:01:27;10.40;;;4.97;;
61383;SDS011;63511;49.346;8.798;2022-10-30T04:03:55;21.38;;;6.97;;
61383;SDS011;63511;49.346;8.798;2022-10-30T04:06:20;9.95;;;5.50;;
61383;SDS011;63511;49.346;8.798;2022-10-30T04:08:46;16.50;;;5.47;;
61383;SDS011;63511;49.346;8.798;2022-10-30T04:11:11;20.92;;;7.35;;
61383;SDS011;63511;49.346;8.798;2022-10-30T04:13:39;32.50;;;8.35;;
61383;SDS011;63511;49.346;8.798;2022-10-30T04:16:06;21.15;;;5.90;;
61383;SDS011;63511;49.346;8.798;2022-10-30T04:18:34;24.93;;;6.03;;
61383;SDS011;63511;49.346;8.798;2022-10-30T04:20:59;19.23;;;6.15;;
61383;SDS011;63511;49.346;8.798;2022-10-30T04:23:25;52.22;;;8.68;;
61383;SDS011;63511;49.346;8.798;2022-10-30T04:25:50;38.97;;;8.48;;
61383;SDS011;63511;49.346;8.798;2022-10-30T04:28:18;34.40;;;6.95;;
61383;SDS011;63511;49.346;8.798;2022-10-30T04:30:45;40.83;;;9.13;;
61383;SDS011;63511;49.346;8.798;2022-10-30T04:33:11;20.20;;;6.97;;
61383;SDS011;63511;49.346;8.798;2022-10-30T04:35:39;43.20;;;7.95;;
61383;SDS011;63511;49.346;8.798;2022-10-30T04:38:07;15.10;;;6.28;;
61383;SDS011;63511;49.346;8.798;2022-10-30T04:40:36;17.33;;;5.85;;
61383;SDS011;63511;49.346;8.798;2022-10-30T04:43:02;32.47;;;7.25;;
61383;SDS011;63511;49.346;8.798;2022-10-30T04:45:28;19.35;;;7.03;;
61383;SDS011;63511;49.346;8.798;2022-10-30T04:48:04;36.97;;;7.10;;
61383;SDS011;63511;49.346;8.798;2022-10-30T04:50:31;28.88;;;7.10;;
61383;SDS011;63511;49.346;8.798;2022-10-30T04:53:04;31.70;;;7.95;;
61383;SDS011;63511;49.346;8.798;2022-10-30T04:55:31;22.83;;;8.57;;
61383;SDS011;63511;49.346;8.798;2022-10-30T04:57:58;28.40;;;8.10;;
61383;SDS011;63511;49.346;8.798;2022-10-30T05:00:24;25.10;;;8.00;;
61383;SDS011;63511;49.346;8.798;2022-10-30T05:02:52;77.85;;;9.27;;
61383;SDS011;63511;49.346;8.798;2022-10-30T05:05:18;52.22;;;9.00;;
61383;SDS011;63511;49.346;8.798;2022-10-30T05:07:44;69.95;;;9.35;;
61383;SDS011;63511;49.346;8.798;2022-10-30T05:10:12;67.10;;;8.82;;
61383;SDS011;63511;49.346;8.798;2022-10-30T05:12:44;32.60;;;9.13;;
61383;SDS011;63511;49.346;8.798;2022-10-30T05:15:10;28.35;;;7.18;;
61383;SDS011;63511;49.346;8.798;2022-10-30T05:17:37;47.05;;;9.85;;
61383;SDS011;63511;49.346;8.798;2022-10-30T05:20:03;50.05;;;8.00;;
61383;SDS011;63511;49.346;8.798;2022-10-30T05:22:29;19.92;;;9.23;;
61383;SDS011;63511;49.346;8.798;2022-10-30T05:24:54;13.45;;;7.75;;
61383;SDS011;63511;49.346;8.798;2022-10-30T05:27:22;57.55;;;8.88;;
61383;SDS011;63511;49.346;8.798;2022-10-30T05:29:47;20.33;;;8.25;;
61383;SDS011;63511;49.346;8.798;2022-10-30T05:32:12;29.58;;;8.05;;
61383;SDS011;63511;49.346;8.798;2022-10-30T05:34:38;55.63;;;9.40;;
61383;SDS011;63511;49.346;8.798;2022-10-30T05:37:03;28.77;;;8.00;;
61383;SDS011;63511;49.346;8.798;2022-10-30T05:39:28;51.15;;;9.73;;
61383;SDS011;63511;49.346;8.798;2022-10-30T05:41:54;27.50;;;7.63;;
61383;SDS011;63511;49.346;8.798;2022-10-30T05:44:19;29.92;;;8.57;;
61383;SDS011;63511;49.346;8.798;2022-10-30T05:46:44;14.95;;;7.15;;
61383;SDS011;63511;49.346;8.798;2022-10-30T05:49:10;38.15;;;7.93;;
61383;SDS011;63511;49.346;8.798;2022-10-30T05:51:35;96.25;;;11.13;;
61383;SDS011;63511;49.346;8.798;2022-10-30T05:54:02;23.35;;;10.35;;
61383;SDS011;63511;49.346;8.798;2022-10-30T05:56:30;27.13;;;7.07;;
61383;SDS011;63511;49.346;8.798;2022-10-30T05:58:57;28.73;;;7.97;;
61383;SDS011;63511;49.346;8.798;2022-10-30T06:01:23;57.85;;;7.32;;
61383;SDS011;63511;49.346;8.798;2022-10-30T06:03:48;32.50;;;6.32;;
61383;SDS011;63511;49.346;8.798;2022-10-30T06:06:13;32.65;;;6.80;;
61383;SDS011;63511;49.346;8.798;2022-10-30T06:08:39;18.10;;;7.70;;
61383;SDS011;63511;49.346;8.798;2022-10-30T06:11:04;20.63;;;6.78;;
61383;SDS011;63511;49.346;8.798;2022-10-30T06:13:34;15.07;;;7.03;;
61383;SDS011;63511;49.346;8.798;2022-10-30T06:15:59;22.42;;;7.03;;
61383;SDS011;63511;49.346;8.798;2022-10-30T06:18:29;17.10;;;5.70;;
61383;SDS011;63511;49.346;8.798;2022-10-30T06:20:54;23.35;;;6.53;;
61383;SDS011;63511;49.346;8.798;2022-10-30T06:23:20;30.58;;;7.95;;
61383;SDS011;63511;49.346;8.798;2022-10-30T06:25:45;35.38;;;6.50;;
61383;SDS011;63511;49.346;8.798;2022-10-30T06:28:11;33.80;;;6.78;;
61383;SDS011;63511;49.346;8.798;2022-10-30T06:30:38;26.52;;;6.32;;
61383;SDS011;63511;49.346;8.798;2022-10-30T06:33:04;18.92;;;5.85;;
61383;SDS011;63511;49.346;8.798;2022-10-30T06:35:32;30.13;;;6.22;;
61383;SDS011;63511;49.346;8.798;2022-10-30T06:37:57;21.48;;;5.65;;
61383;SDS011;63511;49.346;8.798;2022-10-30T06:40:26;16.83;;;5.78;;
61383;SDS011;63511;49.346;8.798;2022-10-30T06:42:56;26.10;;;5.97;;
61383;SDS011;63511;49.346;8.798;2022-10-30T06:45:25;10.45;;;5.43;;
61383;SDS011;63511;49.346;8.798;2022-10-30T06:47:50;10.38;;;4.90;;
61383;SDS011;63511;49.346;8.798;2022-10-30T06:50:17;10.18;;;4.47;;
61383;SDS011;63511;49.346;8.798;2022-10-30T06:52:44;15.07;;;4.55;;
61383;SDS011;63511;49.346;8.798;2022-10-30T06:55:09;12.45;;;5.60;;
61383;SDS011;63511;49.346;8.798;2022-10-30T06:57:35;10.63;;;5.22;;
61383;SDS011;63511;49.346;8.798;2022-10-30T07:00:04;16.98;;;5.88;;
61383;SDS011;63511;49.346;8.798;2022-10-30T07:02:31;22.95;;;6.78;;
61383;SDS011;63511;49.346;8.798;2022-10-30T07:04:59;14.00;;;5.70;;
61383;SDS011;63511;49.346;8.798;2022-10-30T07:07:27;8.95;;;5.32;;
61383;SDS011;63511;49.346;8.798;2022-10-30T07:09:53;8.10;;;5.03;;
61383;SDS011;63511;49.346;8.798;2022-10-30T07:12:18;8.93;;;5.68;;
61383;SDS011;63511;49.346;8.798;2022-10-30T07:14:44;17.67;;;6.65;;
61383;SDS011;63511;49.346;8.798;2022-10-30T07:17:14;9.85;;;5.97;;
61383;SDS011;63511;49.346;8.798;2022-10-30T07:19:39;10.18;;;5.32;;
61383;SDS011;63511;49.346;8.798;2022-10-30T07:22:04;8.82;;;4.93;;
61383;SDS011;63511;49.346;8.798;2022-10-30T07:24:32;7.45;;;5.03;;
61383;SDS011;63511;49.346;8.798;2022-10-30T07:26:57;11.52;;;4.72;;
61383;SDS011;63511;49.346;8.798;2022-10-30T07:29:25;8.43;;;4.63;;
61383;SDS011;63511;49.346;8.798;2022-10-30T07:31:53;9.75;;;5.03;;
61383;SDS011;63511;49.346;8.798;2022-10-30T07:34:18;6.90;;;4.93;;
61383;SDS011;63511;49.346;8.798;2022-10-30T07:36:43;8.38;;;5.80;;
61383;SDS011;63511;49.346;8.798;2022-10-30T07:39:08;11.63;;;5.45;;
61383;SDS011;63511;49.346;8.798;2022-10-30T07:41:34;12.15;;;5.38;;
61383;SDS011;63511;49.346;8.798;2022-10-30T07:43:59;14.15;;;6.15;;
61383;SDS011;63511;49.346;8.798;2022-10-30T07:46:25;12.15;;;5.68;;
61383;SDS011;63511;49.346;8.798;2022-10-30T07:48:50;9.60;;;6.25;;
61383;SDS011;63511;49.346;8.798;2022-10-30T07:51:15;11.95;;;5.10;;
61383;SDS011;63511;49.346;8.798;2022-10-30T07:53:40;8.88;;;5.35;;
61383;SDS011;63511;49.346;8.798;2022-10-30T07:56:08;6.45;;;4.75;;
61383;SDS011;63511;49.346;8.798;2022-10-30T07:58:33;9.07;;;5.28;;
61383;SDS011;63511;49.346;8.798;2022-10-30T08:00:59;6.43;;;4.82;;
61383;SDS011;63511;49.346;8.798;2022-10-30T08:03:24;9.32;;;5.30;;
61383;SDS011;63511;49.346;8.798;2022-10-30T08:05:52;7.75;;;5.25;;
61383;SDS011;63511;49.346;8.798;2022-10-30T08:08:22;8.10;;;5.35;;
61383;SDS011;63511;49.346;8.798;2022-10-30T08:10:47;9.75;;;5.10;;
61383;SDS011;63511;49.346;8.798;2022-10-30T08:13:13;7.95;;;5.50;;
61383;SDS011;63511;49.346;8.798;2022-10-30T08:15:38;8.70;;;5.60;;
61383;SDS011;63511;49.346;8.798;2022-10-30T08:18:06;11.10;;;5.18;;
61383;SDS011;63511;49.346;8.798;2022-10-30T08:20:31;8.10;;;5.22;;
61383;SDS011;63511;49.346;8.798;2022-10-30T08:22:57;13.07;;;5.65;;
61383;SDS011;63511;49.346;8.798;2022-10-30T08:25:23;8.95;;;5.32;;
61383;SDS011;63511;49.346;8.798;2022-10-30T08:30:24;12.55;;;5.43;;
61383;SDS011;63511;49.346;8.798;2022-10-30T08:32:59;9.07;;;4.97;;
61383;SDS011;63511;49.346;8.798;2022-10-30T08:35:28;10.80;;;6.20;;
61383;SDS011;63511;49.346;8.798;2022-10-30T08:37:54;16.08;;;5.60;;
61383;SDS011;63511;49.346;8.798;2022-10-30T08:40:24;11.55;;;5.28;;
61383;SDS011;63511;49.346;8.798;2022-10-30T08:42:51;9.23;;;5.70;;
61383;SDS011;63511;49.346;8.798;2022-10-30T08:45:20;8.07;;;5.30;;
61383;SDS011;63511;49.346;8.798;2022-10-30T08:47:55;10.95;;;5.82;;
61383;SDS011;63511;49.346;8.798;2022-10-30T08:50:22;8.55;;;4.95;;
61383;SDS011;63511;49.346;8.798;2022-10-30T08:52:50;9.70;;;5.45;;
61383;SDS011;63511;49.346;8.798;2022-10-30T08:55:17;9.40;;;5.13;;
61383;SDS011;63511;49.346;8.798;2022-10-30T08:57:45;9.68;;;5.57;;
61383;SDS011;63511;49.346;8.798;2022-10-30T09:00:10;9.10;;;5.93;;
61383;SDS011;63511;49.346;8.798;2022-10-30T09:02:36;14.05;;;5.60;;
61383;SDS011;63511;49.346;8.798;2022-10-30T09:05:03;11.45;;;5.38;;
61383;SDS011;63511;49.346;8.798;2022-10-30T09:07:30;7.97;;;5.45;;
61383;SDS011;63511;49.346;8.798;2022-10-30T09:09:56;9.65;;;5.22;;
61383;SDS011;63511;49.346;8.798;2022-10-30T09:12:21;9.25;;;5.50;;
61383;SDS011;63511;49.346;8.798;2022-10-30T09:14:46;13.07;;;5.25;;
61383;SDS011;63511;49.346;8.798;2022-10-30T09:17:12;20.08;;;6.55;;
61383;SDS011;63511;49.346;8.798;2022-10-30T09:19:37;9.60;;;5.57;;
61383;SDS011;63511;49.346;8.798;2022-10-30T09:22:05;5.57;;;4.95;;
61383;SDS011;63511;49.346;8.798;2022-10-30T09:24:31;8.82;;;5.03;;
61383;SDS011;63511;49.346;8.798;2022-10-30T09:26:56;11.93;;;5.63;;
61383;SDS011;63511;49.346;8.798;2022-10-30T09:29:23;12.38;;;5.25;;
61383;SDS011;63511;49.346;8.798;2022-10-30T09:31:49;9.73;;;5.95;;
61383;SDS011;63511;49.346;8.798;2022-10-30T09:34:14;10.10;;;5.20;;
61383;SDS011;63511;49.346;8.798;2022-10-30T09:36:40;16.98;;;6.35;;
61383;SDS011;63511;49.346;8.798;2022-10-30T09:39:08;8.13;;;5.22;;
61383;SDS011;63511;49.346;8.798;2022-10-30T09:55:55;16.25;;;7.20;;
61383;SDS011;63511;49.346;8.798;2022-10-30T09:58:31;15.05;;;6.75;;
61383;SDS011;63511;49.346;8.798;2022-10-30T10:01:15;12.98;;;7.28;;
61383;SDS011;63511;49.346;8.798;2022-10-30T10:04:02;14.68;;;7.10;;
61383;SDS011;63511;49.346;8.798;2022-10-30T10:06:38;13.95;;;6.68;;
61383;SDS011;63511;49.346;8.798;2022-10-30T10:09:17;22.40;;;10.15;;
61383;SDS011;63511;49.346;8.798;2022-10-30T10:11:51;19.00;;;7.45;;
61383;SDS011;63511;49.346;8.798;2022-10-30T10:14:33;18.23;;;6.57;;
61383;SDS011;63511;49.346;8.798;2022-10-30T10:17:02;21.45;;;7.85;;
61383;SDS011;63511;49.346;8.798;2022-10-30T10:24:54;18.65;;;7.68;;
61383;SDS011;63511;49.346;8.798;2022-10-30T10:30:14;18.08;;;6.70;;
61383;SDS011;63511;49.346;8.798;2022-10-30T10:35:36;25.95;;;6.70;;
61383;SDS011;63511;49.346;8.798;2022-10-30T10:52:34;16.48;;;6.63;;
61383;SDS011;63511;49.346;8.798;2022-10-30T10:55:12;11.98;;;5.95;;
61383;SDS011;63511;49.346;8.798;2022-10-30T10:57:48;29.23;;;7.00;;
61383;SDS011;63511;49.346;8.798;2022-10-30T11:00:21;15.95;;;6.38;;
61383;SDS011;63511;49.346;8.798;2022-10-30T11:05:31;19.20;;;6.45;;
61383;SDS011;63511;49.346;8.798;2022-10-30T11:08:05;19.90;;;7.00;;
61383;SDS011;63511;49.346;8.798;2022-10-30T11:10:38;17.42;;;7.38;;
61383;SDS011;63511;49.346;8.798;2022-10-30T11:13:04;14.32;;;6.15;;
61383;SDS011;63511;49.346;8.798;2022-10-30T11:18:06;17.65;;;6.38;;
61383;SDS011;63511;49.346;8.798;2022-10-30T11:23:28;17.98;;;6.65;;
61383;SDS011;63511;49.346;8.798;2022-10-30T11:25:57;19.95;;;7.10;;
61383;SDS011;63511;49.346;8.798;2022-10-30T11:28:35;25.60;;;7.32;;
61383;SDS011;63511;49.346;8.798;2022-10-30T11:33:44;15.70;;;6.85;;
61383;SDS011;63511;49.346;8.798;2022-10-30T11:36:14;31.95;;;6.65;;
61383;SDS011;63511;49.346;8.798;2022-10-30T11:38:41;24.45;;;7.00;;
61383;SDS011;63511;49.346;8.798;2022-10-30T11:41:11;25.20;;;6.63;;
61383;SDS011;63511;49.346;8.798;2022-10-30T11:43:38;21.98;;;6.45;;
61383;SDS011;63511;49.346;8.798;2022-10-30T11:46:08;13.65;;;6.20;;
61383;SDS011;63511;49.346;8.798;2022-10-30T11:48:42;13.38;;;7.15;;
61383;SDS011;63511;49.346;8.798;2022-10-30T11:51:08;17.02;;;6.45;;
61383;SDS011;63511;49.346;8.798;2022-10-30T11:53:36;22.08;;;6.63;;
61383;SDS011;63511;49.346;8.798;2022-10-30T11:56:18;16.05;;;5.65;;
61383;SDS011;63511;49.346;8.798;2022-10-30T11:58:46;20.48;;;6.65;;
61383;SDS011;63511;49.346;8.798;2022-10-30T12:01:21;13.98;;;5.57;;
61383;SDS011;63511;49.346;8.798;2022-10-30T12:03:48;21.02;;;6.88;;
61383;SDS011;63511;49.346;8.798;2022-10-30T12:11:31;16.08;;;6.10;;
61383;SDS011;63511;49.346;8.798;2022-10-30T12:14:01;20.65;;;5.88;;
61383;SDS011;63511;49.346;8.798;2022-10-30T12:16:27;20.58;;;6.35;;
61383;SDS011;63511;49.346;8.798;2022-10-30T12:19:02;19.08;;;6.53;;
61383;SDS011;63511;49.346;8.798;2022-10-30T12:21:34;15.75;;;6.63;;
61383;SDS011;63511;49.346;8.798;2022-10-30T12:24:02;12.63;;;5.32;;
61383;SDS011;63511;49.346;8.798;2022-10-30T12:26:34;22.98;;;6.53;;
61383;SDS011;63511;49.346;8.798;2022-10-30T12:29:03;14.50;;;5.38;;
61383;SDS011;63511;49.346;8.798;2022-10-30T12:37:31;18.75;;;6.95;;
61383;SDS011;63511;49.346;8.798;2022-10-30T12:40:04;18.60;;;6.47;;
61383;SDS011;63511;49.346;8.798;2022-10-30T12:42:39;16.88;;;6.50;;
61383;SDS011;63511;49.346;8.798;2022-10-30T12:45:16;16.85;;;5.55;;
61383;SDS011;63511;49.346;8.798;2022-10-30T12:48:09;14.88;;;5.20;;
61383;SDS011;63511;49.346;8.798;2022-10-30T12:50:51;17.25;;;5.65;;
61383;SDS011;63511;49.346;8.798;2022-10-30T12:56:30;19.52;;;5.35;;
61383;SDS011;63511;49.346;8.798;2022-10-30T12:58:58;17.58;;;6.13;;
61383;SDS011;63511;49.346;8.798;2022-10-30T13:01:43;16.35;;;5.10;;
61383;SDS011;63511;49.346;8.798;2022-10-30T13:04:23;25.05;;;7.13;;
61383;SDS011;63511;49.346;8.798;2022-10-30T13:07:10;19.85;;;6.05;;
61383;SDS011;63511;49.346;8.798;2022-10-30T13:09:53;16.40;;;5.95;;
61383;SDS011;63511;49.346;8.798;2022-10-30T13:12:38;13.15;;;6.20;;
61383;SDS011;63511;49.346;8.798;2022-10-30T13:17:57;14.75;;;5.68;;
61383;SDS011;63511;49.346;8.798;2022-10-30T13:20:25;14.70;;;6.07;;
61383;SDS011;63511;49.346;8.798;2022-10-30T13:22:58;20.05;;;5.85;;
61383;SDS011;63511;49.346;8.798;2022-10-30T13:25:33;17.90;;;5.88;;
61383;SDS011;63511;49.346;8.798;2022-10-30T13:30:45;18.05;;;5.43;;
61383;SDS011;63511;49.346;8.798;2022-10-30T13:36:29;11.30;;;5.63;;
61383;SDS011;63511;49.346;8.798;2022-10-30T13:42:13;15.03;;;5.87;;
61383;SDS011;63511;49.346;8.798;2022-10-30T13:47:16;11.43;;;5.68;;
61383;SDS011;63511;49.346;8.798;2022-10-30T13:52:34;10.23;;;5.67;;
61383;SDS011;63511;49.346;8.798;2022-10-30T13:55:19;20.00;;;6.07;;
61383;SDS011;63511;49.346;8.798;2022-10-30T14:00:15;18.67;;;5.57;;
61383;SDS011;63511;49.346;8.798;2022-10-30T14:05:40;16.33;;;5.78;;
61383;SDS011;63511;49.346;8.798;2022-10-30T14:08:17;15.95;;;5.32;;
61383;SDS011;63511;49.346;8.798;2022-10-30T14:10:46;29.83;;;6.32;;
61383;SDS011;63511;49.346;8.798;2022-10-30T14:16:00;14.55;;;5.90;;
61383;SDS011;63511;49.346;8.798;2022-10-30T14:18:29;18.85;;;7.93;;
61383;SDS011;63511;49.346;8.798;2022-10-30T14:24:01;22.15;;;9.40;;
61383;SDS011;63511;49.346;8.798;2022-10-30T14:26:28;16.38;;;7.68;;
61383;SDS011;63511;49.346;8.798;2022-10-30T14:28:56;21.40;;;7.68;;
61383;SDS011;63511;49.346;8.798;2022-10-30T14:31:34;21.40;;;7.65;;
61383;SDS011;63511;49.346;8.798;2022-10-30T14:34:03;19.15;;;6.85;;
61383;SDS011;63511;49.346;8.798;2022-10-30T14:41:47;21.63;;;7.30;;
61383;SDS011;63511;49.346;8.798;2022-10-30T14:53:37;17.35;;;6.90;;
61383;SDS011;63511;49.346;8.798;2022-10-30T14:55:57;19.15;;;5.65;;
61383;SDS011;63511;49.346;8.798;2022-10-30T14:58:36;22.23;;;5.82;;
61383;SDS011;63511;49.346;8.798;2022-10-30T15:03:46;21.50;;;6.23;;
61383;SDS011;63511;49.346;8.798;2022-10-30T15:06:35;18.15;;;5.75;;
61383;SDS011;63511;49.346;8.798;2022-10-30T15:12:01;12.93;;;5.72;;
61383;SDS011;63511;49.346;8.798;2022-10-30T15:17:11;19.05;;;6.00;;
61383;SDS011;63511;49.346;8.798;2022-10-30T15:19:43;22.75;;;5.47;;
61383;SDS011;63511;49.346;8.798;2022-10-30T15:22:09;14.25;;;5.50;;
61383;SDS011;63511;49.346;8.798;2022-10-30T15:24:43;12.82;;;5.75;;
61383;SDS011;63511;49.346;8.798;2022-10-30T15:27:19;9.85;;;5.45;;
61383;SDS011;63511;49.346;8.798;2022-10-30T15:29:48;37.72;;;6.70;;
61383;SDS011;63511;49.346;8.798;2022-10-30T15:32:19;23.75;;;6.43;;
61383;SDS011;63511;49.346;8.798;2022-10-30T15:34:51;30.63;;;7.43;;
61383;SDS011;63511;49.346;8.798;2022-10-30T15:37:21;17.25;;;6.22;;
61383;SDS011;63511;49.346;8.798;2022-10-30T15:39:49;20.42;;;7.15;;
61383;SDS011;63511;49.346;8.798;2022-10-30T15:42:14;19.73;;;5.78;;
61383;SDS011;63511;49.346;8.798;2022-10-30T15:44:45;15.32;;;5.40;;
61383;SDS011;63511;49.346;8.798;2022-10-30T15:47:17;17.55;;;5.72;;
61383;SDS011;63511;49.346;8.798;2022-10-30T15:49:49;18.30;;;6.30;;
61383;SDS011;63511;49.346;8.798;2022-10-30T15:52:19;13.23;;;5.80;;
61383;SDS011;63511;49.346;8.798;2022-10-30T15:54:51;15.63;;;5.97;;
61383;SDS011;63511;49.346;8.798;2022-10-30T15:57:28;14.98;;;5.72;;
61383;SDS011;63511;49.346;8.798;2022-10-30T15:59:59;13.20;;;5.70;;
61383;SDS011;63511;49.346;8.798;2022-10-30T16:02:29;16.15;;;5.72;;
61383;SDS011;63511;49.346;8.798;2022-10-30T16:05:00;26.27;;;8.70;;
61383;SDS011;63511;49.346;8.798;2022-10-30T16:07:26;15.30;;;6.03;;
61383;SDS011;63511;49.346;8.798;2022-10-30T16:12:26;12.15;;;6.55;;
61383;SDS011;63511;49.346;8.798;2022-10-30T16:14:56;15.63;;;7.88;;
61383;SDS011;63511;49.346;8.798;2022-10-30T16:17:26;17.02;;;5.35;;
61383;SDS011;63511;49.346;8.798;2022-10-30T16:19:55;24.08;;;6.13;;
61383;SDS011;63511;49.346;8.798;2022-10-30T16:22:25;14.32;;;6.32;;
61383;SDS011;63511;49.346;8.798;2022-10-30T16:24:53;16.17;;;4.93;;
61383;SDS011;63511;49.346;8.798;2022-10-30T16:27:22;18.00;;;5.53;;
61383;SDS011;63511;49.346;8.798;2022-10-30T16:29:52;17.10;;;5.32;;
61383;SDS011;63511;49.346;8.798;2022-10-30T16:32:24;16.58;;;6.00;;
61383;SDS011;63511;49.346;8.798;2022-10-30T16:34:55;28.08;;;7.53;;
61383;SDS011;63511;49.346;8.798;2022-10-30T16:37:31;13.85;;;6.65;;
61383;SDS011;63511;49.346;8.798;2022-10-30T16:39:57;13.98;;;6.13;;
61383;SDS011;63511;49.346;8.798;2022-10-30T16:42:26;15.00;;;7.80;;
61383;SDS011;63511;49.346;8.798;2022-10-30T16:50:15;24.42;;;8.60;;
61383;SDS011;63511;49.346;8.798;2022-10-30T16:52:41;36.70;;;13.13;;
61383;SDS011;63511;49.346;8.798;2022-10-30T16:55:20;29.05;;;11.15;;
61383;SDS011;63511;49.346;8.798;2022-10-30T16:57:53;29.48;;;10.65;;
61383;SDS011;63511;49.346;8.798;2022-10-30T17:00:25;19.33;;;8.77;;
61383;SDS011;63511;49.346;8.798;2022-10-30T17:05:29;23.75;;;10.50;;
61383;SDS011;63511;49.346;8.798;2022-10-30T17:07:59;33.17;;;11.93;;
61383;SDS011;63511;49.346;8.798;2022-10-30T17:13:26;19.80;;;8.55;;
61383;SDS011;63511;49.346;8.798;2022-10-30T17:18:40;14.18;;;7.03;;
61383;SDS011;63511;49.346;8.798;2022-10-30T17:21:08;19.52;;;6.35;;
61383;SDS011;63511;49.346;8.798;2022-10-30T17:23:36;20.23;;;8.38;;
61383;SDS011;63511;49.346;8.798;2022-10-30T17:26:08;16.42;;;5.95;;
61383;SDS011;63511;49.346;8.798;2022-10-30T17:28:35;15.85;;;6.75;;
61383;SDS011;63511;49.346;8.798;2022-10-30T17:33:42;18.52;;;6.43;;
61383;SDS011;63511;49.346;8.798;2022-10-30T17:36:08;22.58;;;7.03;;